sensor_id;sensor_type;location;lat;lon;timestamp;temperature;humidity
20091;DHT22;10205;49.678;6.560;2023-11-22T00:00:23;13.50;73.60
20091;DHT22;10205;49.678;6.560;2023-11-22T00:02:50;13.50;73.40
20091;DHT22;10205;49.678;6.560;2023-11-22T00:05:17;13.50;73.50
20091;DHT22;10205;49.678;6.560;2023-11-22T00:07:44;13.40;73.50
20091;DHT22;10205;49.678;6.560;2023-11-22T00:10:11;13.30;73.70
20091;DHT22;10205;49.678;6.560;2023-11-22T00:12:41;13.30;74.70
20091;DHT22;10205;49.678;6.560;2023-11-22T00:15:08;13.20;73.50
20091;DHT22;10205;49.678;6.560;2023-11-22T00:17:38;13.20;73.60
20091;DHT22;10205;49.678;6.560;2023-11-22T00:20:07;13.10;74.40
20091;DHT22;10205;49.678;6.560;2023-11-22T00:22:34;13.10;74.00
20091;DHT22;10205;49.678;6.560;2023-11-22T00:25:03;13.10;74.00
20091;DHT22;10205;49.678;6.560;2023-11-22T00:27:30;13.00;74.10
20091;DHT22;10205;49.678;6.560;2023-11-22T00:29:58;13.00;74.40
20091;DHT22;10205;49.678;6.560;2023-11-22T00:32:25;13.00;73.80
20091;DHT22;10205;49.678;6.560;2023-11-22T00:34:54;13.00;73.80
20091;DHT22;10205;49.678;6.560;2023-11-22T00:37:21;13.00;74.10
20091;DHT22;10205;49.678;6.560;2023-11-22T00:39:48;13.00;74.40
20091;DHT22;10205;49.678;6.560;2023-11-22T00:42:16;12.90;74.40
20091;DHT22;10205;49.678;6.560;2023-11-22T00:44:45;12.90;74.30
20091;DHT22;10205;49.678;6.560;2023-11-22T00:47:12;12.90;74.40
20091;DHT22;10205;49.678;6.560;2023-11-22T00:49:42;12.80;74.40
20091;DHT22;10205;49.678;6.560;2023-11-22T00:52:10;12.80;74.50
20091;DHT22;10205;49.678;6.560;2023-11-22T00:54:38;12.80;74.20
20091;DHT22;10205;49.678;6.560;2023-11-22T00:57:06;12.80;74.50
20091;DHT22;10205;49.678;6.560;2023-11-22T00:59:33;12.80;74.50
20091;DHT22;10205;49.678;6.560;2023-11-22T01:02:00;12.80;74.80
20091;DHT22;10205;49.678;6.560;2023-11-22T01:04:30;12.80;75.00
20091;DHT22;10205;49.678;6.560;2023-11-22T01:06:59;12.80;75.10
20091;DHT22;10205;49.678;6.560;2023-11-22T01:09:28;12.80;74.90
20091;DHT22;10205;49.678;6.560;2023-11-22T01:11:55;12.80;75.10
20091;DHT22;10205;49.678;6.560;2023-11-22T01:14:23;12.80;75.30
20091;DHT22;10205;49.678;6.560;2023-11-22T01:16:51;12.80;75.40
20091;DHT22;10205;49.678;6.560;2023-11-22T01:19:19;12.80;75.40
20091;DHT22;10205;49.678;6.560;2023-11-22T01:21:46;12.80;75.50
20091;DHT22;10205;49.678;6.560;2023-11-22T01:24:14;12.80;75.50
20091;DHT22;10205;49.678;6.560;2023-11-22T01:26:43;12.80;75.40
20091;DHT22;10205;49.678;6.560;2023-11-22T01:29:10;12.80;75.40
20091;DHT22;10205;49.678;6.560;2023-11-22T01:31:37;12.80;76.10
20091;DHT22;10205;49.678;6.560;2023-11-22T01:34:04;12.80;75.10
20091;DHT22;10205;49.678;6.560;2023-11-22T01:36:31;12.80;75.00
20091;DHT22;10205;49.678;6.560;2023-11-22T01:38:58;12.80;74.90
20091;DHT22;10205;49.678;6.560;2023-11-22T01:41:28;12.80;74.90
20091;DHT22;10205;49.678;6.560;2023-11-22T01:43:57;12.90;74.90
20091;DHT22;10205;49.678;6.560;2023-11-22T01:46:25;12.80;74.90
20091;DHT22;10205;49.678;6.560;2023-11-22T01:48:54;12.80;74.90
20091;DHT22;10205;49.678;6.560;2023-11-22T01:51:22;12.80;75.50
20091;DHT22;10205;49.678;6.560;2023-11-22T01:53:52;12.80;74.60
20091;DHT22;10205;49.678;6.560;2023-11-22T01:56:21;12.80;74.50
20091;DHT22;10205;49.678;6.560;2023-11-22T01:58:50;12.80;74.60
20091;DHT22;10205;49.678;6.560;2023-11-22T02:01:18;12.70;74.70
20091;DHT22;10205;49.678;6.560;2023-11-22T02:03:46;12.70;74.70
20091;DHT22;10205;49.678;6.560;2023-11-22T02:06:15;12.70;74.70
20091;DHT22;10205;49.678;6.560;2023-11-22T02:08:43;12.70;74.70
20091;DHT22;10205;49.678;6.560;2023-11-22T02:11:10;12.70;74.70
20091;DHT22;10205;49.678;6.560;2023-11-22T02:13:37;12.70;74.80
20091;DHT22;10205;49.678;6.560;2023-11-22T02:16:05;12.70;74.80
20091;DHT22;10205;49.678;6.560;2023-11-22T02:18:33;12.60;74.80
20091;DHT22;10205;49.678;6.560;2023-11-22T02:21:03;12.60;74.70
20091;DHT22;10205;49.678;6.560;2023-11-22T02:23:31;12.60;74.80
20091;DHT22;10205;49.678;6.560;2023-11-22T02:25:58;12.60;74.80
20091;DHT22;10205;49.678;6.560;2023-11-22T02:28:26;12.60;74.80
20091;DHT22;10205;49.678;6.560;2023-11-22T02:30:53;12.60;74.70
20091;DHT22;10205;49.678;6.560;2023-11-22T02:33:20;12.60;74.60
20091;DHT22;10205;49.678;6.560;2023-11-22T02:35:48;12.60;74.60
20091;DHT22;10205;49.678;6.560;2023-11-22T02:38:15;12.60;74.60
20091;DHT22;10205;49.678;6.560;2023-11-22T02:40:44;12.50;74.50
20091;DHT22;10205;49.678;6.560;2023-11-22T02:43:11;12.50;74.50
20091;DHT22;10205;49.678;6.560;2023-11-22T02:45:39;12.50;74.50
20091;DHT22;10205;49.678;6.560;2023-11-22T02:48:06;12.50;74.60
20091;DHT22;10205;49.678;6.560;2023-11-22T02:50:35;12.40;74.60
20091;DHT22;10205;49.678;6.560;2023-11-22T02:53:05;12.40;74.60
20091;DHT22;10205;49.678;6.560;2023-11-22T02:55:34;12.40;74.60
20091;DHT22;10205;49.678;6.560;2023-11-22T02:58:02;12.40;74.70
20091;DHT22;10205;49.678;6.560;2023-11-22T03:00:29;12.30;74.60
20091;DHT22;10205;49.678;6.560;2023-11-22T03:02:56;12.30;74.60
20091;DHT22;10205;49.678;6.560;2023-11-22T03:05:23;12.30;74.60
20091;DHT22;10205;49.678;6.560;2023-11-22T03:07:50;12.30;74.60
20091;DHT22;10205;49.678;6.560;2023-11-22T03:10:18;12.20;74.60
20091;DHT22;10205;49.678;6.560;2023-11-22T03:12:45;12.20;74.70
20091;DHT22;10205;49.678;6.560;2023-11-22T03:15:14;12.20;74.60
20091;DHT22;10205;49.678;6.560;2023-11-22T03:17:41;12.20;74.70
20091;DHT22;10205;49.678;6.560;2023-11-22T03:20:10;12.20;74.60
20091;DHT22;10205;49.678;6.560;2023-11-22T03:22:37;12.20;74.50
20091;DHT22;10205;49.678;6.560;2023-11-22T03:25:05;12.20;74.60
20091;DHT22;10205;49.678;6.560;2023-11-22T03:27:35;12.10;74.50
20091;DHT22;10205;49.678;6.560;2023-11-22T03:30:03;12.10;74.40
20091;DHT22;10205;49.678;6.560;2023-11-22T03:32:37;12.10;74.40
20091;DHT22;10205;49.678;6.560;2023-11-22T03:35:06;12.10;74.40
20091;DHT22;10205;49.678;6.560;2023-11-22T03:37:33;12.10;74.40
20091;DHT22;10205;49.678;6.560;2023-11-22T03:40:00;12.00;74.40
20091;DHT22;10205;49.678;6.560;2023-11-22T03:42:28;12.00;74.40
20091;DHT22;10205;49.678;6.560;2023-11-22T03:44:55;12.00;74.40
20091;DHT22;10205;49.678;6.560;2023-11-22T03:47:24;12.00;74.40
20091;DHT22;10205;49.678;6.560;2023-11-22T03:49:53;11.90;74.40
20091;DHT22;10205;49.678;6.560;2023-11-22T03:52:20;11.90;74.40
20091;DHT22;10205;49.678;6.560;2023-11-22T03:54:47;11.90;74.50
20091;DHT22;10205;49.678;6.560;2023-11-22T03:57:14;11.90;74.50
20091;DHT22;10205;49.678;6.560;2023-11-22T03:59:42;11.80;74.40
20091;DHT22;10205;49.678;6.560;2023-11-22T04:02:09;11.80;74.40
20091;DHT22;10205;49.678;6.560;2023-11-22T04:04:37;11.80;74.50
20091;DHT22;10205;49.678;6.560;2023-11-22T04:07:06;11.80;74.50
20091;DHT22;10205;49.678;6.560;2023-11-22T04:09:33;11.80;74.50
20091;DHT22;10205;49.678;6.560;2023-11-22T04:12:00;11.80;74.50
20091;DHT22;10205;49.678;6.560;2023-11-22T04:14:29;11.70;74.50
20091;DHT22;10205;49.678;6.560;2023-11-22T04:16:56;11.70;74.50
20091;DHT22;10205;49.678;6.560;2023-11-22T04:19:24;11.70;75.40
20091;DHT22;10205;49.678;6.560;2023-11-22T04:21:51;11.60;74.60
20091;DHT22;10205;49.678;6.560;2023-11-22T04:24:21;11.60;74.60
20091;DHT22;10205;49.678;6.560;2023-11-22T04:26:48;11.60;74.60
20091;DHT22;10205;49.678;6.560;2023-11-22T04:29:15;11.60;74.60
20091;DHT22;10205;49.678;6.560;2023-11-22T04:31:43;11.60;74.60
20091;DHT22;10205;49.678;6.560;2023-11-22T04:34:10;11.60;74.60
20091;DHT22;10205;49.678;6.560;2023-11-22T04:36:37;11.50;74.60
20091;DHT22;10205;49.678;6.560;2023-11-22T04:39:05;11.50;74.60
20091;DHT22;10205;49.678;6.560;2023-11-22T04:41:35;11.40;74.60
20091;DHT22;10205;49.678;6.560;2023-11-22T04:44:02;11.40;74.70
20091;DHT22;10205;49.678;6.560;2023-11-22T04:46:29;11.40;74.70
20091;DHT22;10205;49.678;6.560;2023-11-22T04:48:56;11.40;74.70
20091;DHT22;10205;49.678;6.560;2023-11-22T04:51:24;11.30;74.70
20091;DHT22;10205;49.678;6.560;2023-11-22T04:53:51;11.30;74.70
20091;DHT22;10205;49.678;6.560;2023-11-22T04:56:18;11.30;74.80
20091;DHT22;10205;49.678;6.560;2023-11-22T04:58:46;11.30;74.80
20091;DHT22;10205;49.678;6.560;2023-11-22T05:01:13;11.20;74.80
20091;DHT22;10205;49.678;6.560;2023-11-22T05:03:40;11.20;74.80
20091;DHT22;10205;49.678;6.560;2023-11-22T05:06:07;11.20;74.80
20091;DHT22;10205;49.678;6.560;2023-11-22T05:08:34;11.10;75.60
20091;DHT22;10205;49.678;6.560;2023-11-22T05:11:02;11.10;74.90
20091;DHT22;10205;49.678;6.560;2023-11-22T05:13:30;11.10;74.90
20091;DHT22;10205;49.678;6.560;2023-11-22T05:15:58;11.10;74.90
20091;DHT22;10205;49.678;6.560;2023-11-22T05:18:26;11.10;75.00
20091;DHT22;10205;49.678;6.560;2023-11-22T05:20:53;11.00;75.00
20091;DHT22;10205;49.678;6.560;2023-11-22T05:23:20;11.00;75.00
20091;DHT22;10205;49.678;6.560;2023-11-22T05:25:48;11.00;75.10
20091;DHT22;10205;49.678;6.560;2023-11-22T05:28:15;11.00;75.10
20091;DHT22;10205;49.678;6.560;2023-11-22T05:30:42;10.90;75.10
20091;DHT22;10205;49.678;6.560;2023-11-22T05:33:11;10.90;75.10
20091;DHT22;10205;49.678;6.560;2023-11-22T05:35:38;10.90;75.20
20091;DHT22;10205;49.678;6.560;2023-11-22T05:38:06;10.90;75.30
20091;DHT22;10205;49.678;6.560;2023-11-22T05:40:35;10.90;75.30
20091;DHT22;10205;49.678;6.560;2023-11-22T05:43:04;10.80;75.20
20091;DHT22;10205;49.678;6.560;2023-11-22T05:45:34;10.80;75.30
20091;DHT22;10205;49.678;6.560;2023-11-22T05:48:01;10.80;75.30
20091;DHT22;10205;49.678;6.560;2023-11-22T05:50:30;10.80;75.30
20091;DHT22;10205;49.678;6.560;2023-11-22T05:52:57;10.80;75.40
20091;DHT22;10205;49.678;6.560;2023-11-22T05:55:24;10.80;75.40
20091;DHT22;10205;49.678;6.560;2023-11-22T05:57:51;10.80;75.40
20091;DHT22;10205;49.678;6.560;2023-11-22T06:00:18;10.70;75.40
20091;DHT22;10205;49.678;6.560;2023-11-22T06:02:46;10.70;75.40
20091;DHT22;10205;49.678;6.560;2023-11-22T06:05:13;10.70;75.40
20091;DHT22;10205;49.678;6.560;2023-11-22T06:07:42;10.70;75.50
20091;DHT22;10205;49.678;6.560;2023-11-22T06:10:09;10.70;75.50
20091;DHT22;10205;49.678;6.560;2023-11-22T06:12:37;10.70;76.20
20091;DHT22;10205;49.678;6.560;2023-11-22T06:15:05;10.70;75.50
20091;DHT22;10205;49.678;6.560;2023-11-22T06:17:33;10.60;75.50
20091;DHT22;10205;49.678;6.560;2023-11-22T06:20:00;10.60;75.60
20091;DHT22;10205;49.678;6.560;2023-11-22T06:22:28;10.60;75.60
20091;DHT22;10205;49.678;6.560;2023-11-22T06:24:57;10.60;75.70
20091;DHT22;10205;49.678;6.560;2023-11-22T06:27:24;10.60;75.80
20091;DHT22;10205;49.678;6.560;2023-11-22T06:29:51;10.60;75.70
20091;DHT22;10205;49.678;6.560;2023-11-22T06:32:19;10.60;75.80
20091;DHT22;10205;49.678;6.560;2023-11-22T06:34:46;10.60;75.90
20091;DHT22;10205;49.678;6.560;2023-11-22T06:37:13;10.50;75.80
20091;DHT22;10205;49.678;6.560;2023-11-22T06:39:40;10.50;75.80
20091;DHT22;10205;49.678;6.560;2023-11-22T06:42:08;10.50;75.80
20091;DHT22;10205;49.678;6.560;2023-11-22T06:44:36;10.50;75.90
20091;DHT22;10205;49.678;6.560;2023-11-22T06:47:04;10.50;75.90
20091;DHT22;10205;49.678;6.560;2023-11-22T06:49:31;10.50;76.70
20091;DHT22;10205;49.678;6.560;2023-11-22T06:51:59;10.50;75.90
20091;DHT22;10205;49.678;6.560;2023-11-22T06:54:26;10.50;75.90
20091;DHT22;10205;49.678;6.560;2023-11-22T06:56:53;10.50;76.00
20091;DHT22;10205;49.678;6.560;2023-11-22T06:59:22;10.50;76.00
20091;DHT22;10205;49.678;6.560;2023-11-22T07:01:49;10.50;76.00
20091;DHT22;10205;49.678;6.560;2023-11-22T07:04:16;10.50;76.00
20091;DHT22;10205;49.678;6.560;2023-11-22T07:06:43;10.50;75.70
20091;DHT22;10205;49.678;6.560;2023-11-22T07:09:10;10.40;75.20
20091;DHT22;10205;49.678;6.560;2023-11-22T07:11:39;10.40;75.00
20091;DHT22;10205;49.678;6.560;2023-11-22T07:14:06;10.40;75.00
20091;DHT22;10205;49.678;6.560;2023-11-22T07:16:35;10.40;75.10
20091;DHT22;10205;49.678;6.560;2023-11-22T07:19:03;10.30;75.00
20091;DHT22;10205;49.678;6.560;2023-11-22T07:21:32;10.30;75.00
20091;DHT22;10205;49.678;6.560;2023-11-22T07:24:03;10.30;75.10
20091;DHT22;10205;49.678;6.560;2023-11-22T07:26:32;10.30;75.20
20091;DHT22;10205;49.678;6.560;2023-11-22T07:28:59;10.30;75.30
20091;DHT22;10205;49.678;6.560;2023-11-22T07:31:27;10.30;75.40
20091;DHT22;10205;49.678;6.560;2023-11-22T07:33:56;10.30;75.50
20091;DHT22;10205;49.678;6.560;2023-11-22T07:36:23;10.20;75.50
20091;DHT22;10205;49.678;6.560;2023-11-22T07:38:51;10.20;75.60
20091;DHT22;10205;49.678;6.560;2023-11-22T07:41:19;10.20;75.60
20091;DHT22;10205;49.678;6.560;2023-11-22T07:43:46;10.20;75.70
20091;DHT22;10205;49.678;6.560;2023-11-22T07:46:15;10.20;75.70
20091;DHT22;10205;49.678;6.560;2023-11-22T07:48:43;10.20;76.50
20091;DHT22;10205;49.678;6.560;2023-11-22T07:51:14;10.20;75.70
20091;DHT22;10205;49.678;6.560;2023-11-22T07:53:42;10.20;75.80
20091;DHT22;10205;49.678;6.560;2023-11-22T07:56:10;10.20;75.80
20091;DHT22;10205;49.678;6.560;2023-11-22T07:58:38;10.10;75.80
20091;DHT22;10205;49.678;6.560;2023-11-22T08:01:06;10.10;75.80
20091;DHT22;10205;49.678;6.560;2023-11-22T08:03:39;10.20;75.90
20091;DHT22;10205;49.678;6.560;2023-11-22T08:06:09;10.10;75.80
20091;DHT22;10205;49.678;6.560;2023-11-22T08:08:38;10.10;75.80
20091;DHT22;10205;49.678;6.560;2023-11-22T08:11:06;10.10;75.90
20091;DHT22;10205;49.678;6.560;2023-11-22T08:13:40;10.10;75.90
20091;DHT22;10205;49.678;6.560;2023-11-22T08:16:08;10.10;76.00
20091;DHT22;10205;49.678;6.560;2023-11-22T08:18:35;10.10;76.00
20091;DHT22;10205;49.678;6.560;2023-11-22T08:21:03;10.10;76.00
20091;DHT22;10205;49.678;6.560;2023-11-22T08:23:30;10.10;76.00
20091;DHT22;10205;49.678;6.560;2023-11-22T08:26:00;10.10;76.00
20091;DHT22;10205;49.678;6.560;2023-11-22T08:28:29;10.10;76.00
20091;DHT22;10205;49.678;6.560;2023-11-22T08:30:56;10.10;75.90
20091;DHT22;10205;49.678;6.560;2023-11-22T08:33:23;10.10;75.90
20091;DHT22;10205;49.678;6.560;2023-11-22T08:35:50;10.10;75.80
20091;DHT22;10205;49.678;6.560;2023-11-22T08:38:23;10.10;75.50
20091;DHT22;10205;49.678;6.560;2023-11-22T08:40:51;10.10;75.40
20091;DHT22;10205;49.678;6.560;2023-11-22T08:43:22;10.00;75.40
20091;DHT22;10205;49.678;6.560;2023-11-22T08:45:51;10.00;75.20
20091;DHT22;10205;49.678;6.560;2023-11-22T08:48:18;10.00;75.50
20091;DHT22;10205;49.678;6.560;2023-11-22T08:50:45;10.00;75.50
20091;DHT22;10205;49.678;6.560;2023-11-22T08:53:13;10.00;75.40
20091;DHT22;10205;49.678;6.560;2023-11-22T08:55:40;9.90;75.50
20091;DHT22;10205;49.678;6.560;2023-11-22T08:58:10;10.00;75.40
20091;DHT22;10205;49.678;6.560;2023-11-22T09:00:41;10.00;75.50
20091;DHT22;10205;49.678;6.560;2023-11-22T09:03:10;10.00;75.30
20091;DHT22;10205;49.678;6.560;2023-11-22T09:05:38;10.00;74.90
20091;DHT22;10205;49.678;6.560;2023-11-22T09:08:06;10.00;75.10
20091;DHT22;10205;49.678;6.560;2023-11-22T09:10:38;10.00;74.80
20091;DHT22;10205;49.678;6.560;2023-11-22T09:13:06;10.00;74.60
20091;DHT22;10205;49.678;6.560;2023-11-22T09:15:34;10.00;74.60
20091;DHT22;10205;49.678;6.560;2023-11-22T09:18:06;10.00;74.60
20091;DHT22;10205;49.678;6.560;2023-11-22T09:20:33;10.10;74.30
20091;DHT22;10205;49.678;6.560;2023-11-22T09:23:00;10.10;74.60
20091;DHT22;10205;49.678;6.560;2023-11-22T09:25:30;10.10;74.80
20091;DHT22;10205;49.678;6.560;2023-11-22T09:28:00;10.10;74.60
20091;DHT22;10205;49.678;6.560;2023-11-22T09:30:29;10.10;74.70
20091;DHT22;10205;49.678;6.560;2023-11-22T09:33:03;10.10;74.70
20091;DHT22;10205;49.678;6.560;2023-11-22T09:35:33;10.10;74.20
20091;DHT22;10205;49.678;6.560;2023-11-22T09:38:01;10.20;73.90
20091;DHT22;10205;49.678;6.560;2023-11-22T09:40:29;10.20;73.80
20091;DHT22;10205;49.678;6.560;2023-11-22T09:42:58;10.20;74.00
20091;DHT22;10205;49.678;6.560;2023-11-22T09:45:29;10.20;74.10
20091;DHT22;10205;49.678;6.560;2023-11-22T09:47:57;10.20;74.20
20091;DHT22;10205;49.678;6.560;2023-11-22T09:50:35;10.30;74.30
20091;DHT22;10205;49.678;6.560;2023-11-22T09:53:11;10.30;74.70
20091;DHT22;10205;49.678;6.560;2023-11-22T09:55:41;10.30;73.90
20091;DHT22;10205;49.678;6.560;2023-11-22T09:58:12;10.40;74.20
20091;DHT22;10205;49.678;6.560;2023-11-22T10:00:40;10.40;74.20
20091;DHT22;10205;49.678;6.560;2023-11-22T10:03:09;10.40;73.60
20091;DHT22;10205;49.678;6.560;2023-11-22T10:05:41;10.40;73.40
20091;DHT22;10205;49.678;6.560;2023-11-22T10:08:09;10.50;73.00
20091;DHT22;10205;49.678;6.560;2023-11-22T10:10:36;10.50;72.30
20091;DHT22;10205;49.678;6.560;2023-11-22T10:13:05;10.50;72.40
20091;DHT22;10205;49.678;6.560;2023-11-22T10:15:32;10.50;72.70
20091;DHT22;10205;49.678;6.560;2023-11-22T10:17:59;10.50;72.80
20091;DHT22;10205;49.678;6.560;2023-11-22T10:20:37;10.50;72.50
20091;DHT22;10205;49.678;6.560;2023-11-22T10:23:09;10.50;71.30
20091;DHT22;10205;49.678;6.560;2023-11-22T10:25:43;10.50;71.70
20091;DHT22;10205;49.678;6.560;2023-11-22T10:28:11;10.50;71.90
20091;DHT22;10205;49.678;6.560;2023-11-22T10:30:38;10.50;71.80
20091;DHT22;10205;49.678;6.560;2023-11-22T10:33:06;10.50;72.20
20091;DHT22;10205;49.678;6.560;2023-11-22T10:35:37;10.60;72.20
20091;DHT22;10205;49.678;6.560;2023-11-22T10:38:09;10.60;72.00
20091;DHT22;10205;49.678;6.560;2023-11-22T10:40:37;10.60;72.20
20091;DHT22;10205;49.678;6.560;2023-11-22T10:43:05;10.60;71.80
20091;DHT22;10205;49.678;6.560;2023-11-22T10:45:36;10.60;71.20
20091;DHT22;10205;49.678;6.560;2023-11-22T10:48:04;10.60;71.30
20091;DHT22;10205;49.678;6.560;2023-11-22T10:50:34;10.70;71.50
20091;DHT22;10205;49.678;6.560;2023-11-22T10:53:06;10.70;71.20
20091;DHT22;10205;49.678;6.560;2023-11-22T10:55:44;10.70;70.60
20091;DHT22;10205;49.678;6.560;2023-11-22T10:58:14;10.70;70.40
20091;DHT22;10205;49.678;6.560;2023-11-22T11:00:46;10.70;70.40
20091;DHT22;10205;49.678;6.560;2023-11-22T11:03:18;10.70;69.80
20091;DHT22;10205;49.678;6.560;2023-11-22T11:05:50;10.70;70.10
20091;DHT22;10205;49.678;6.560;2023-11-22T11:08:24;10.70;69.70
20091;DHT22;10205;49.678;6.560;2023-11-22T11:10:53;10.70;70.40
20091;DHT22;10205;49.678;6.560;2023-11-22T11:13:21;10.70;70.80
20091;DHT22;10205;49.678;6.560;2023-11-22T11:15:52;10.80;70.90
20091;DHT22;10205;49.678;6.560;2023-11-22T11:18:21;10.80;71.10
20091;DHT22;10205;49.678;6.560;2023-11-22T11:20:50;10.80;70.80
20091;DHT22;10205;49.678;6.560;2023-11-22T11:23:20;10.80;70.70
20091;DHT22;10205;49.678;6.560;2023-11-22T11:25:50;10.80;70.50
20091;DHT22;10205;49.678;6.560;2023-11-22T11:28:20;10.90;70.10
20091;DHT22;10205;49.678;6.560;2023-11-22T11:30:48;10.90;70.10
20091;DHT22;10205;49.678;6.560;2023-11-22T11:33:18;10.90;69.70
20091;DHT22;10205;49.678;6.560;2023-11-22T11:35:52;10.90;69.90
20091;DHT22;10205;49.678;6.560;2023-11-22T11:38:32;10.90;70.20
20091;DHT22;10205;49.678;6.560;2023-11-22T11:41:08;10.90;70.50
20091;DHT22;10205;49.678;6.560;2023-11-22T11:43:43;10.90;70.30
20091;DHT22;10205;49.678;6.560;2023-11-22T11:46:11;11.00;70.70
20091;DHT22;10205;49.678;6.560;2023-11-22T11:48:42;11.00;70.50
20091;DHT22;10205;49.678;6.560;2023-11-22T11:51:13;11.00;70.40
20091;DHT22;10205;49.678;6.560;2023-11-22T11:53:44;11.00;69.80
20091;DHT22;10205;49.678;6.560;2023-11-22T11:56:12;11.00;70.50
20091;DHT22;10205;49.678;6.560;2023-11-22T11:58:41;11.00;69.70
20091;DHT22;10205;49.678;6.560;2023-11-22T12:01:11;11.00;70.00
20091;DHT22;10205;49.678;6.560;2023-11-22T12:03:38;11.00;70.30
20091;DHT22;10205;49.678;6.560;2023-11-22T12:06:06;11.00;70.10
20091;DHT22;10205;49.678;6.560;2023-11-22T12:08:34;11.10;69.60
20091;DHT22;10205;49.678;6.560;2023-11-22T12:11:03;11.10;69.10
20091;DHT22;10205;49.678;6.560;2023-11-22T12:13:34;11.00;69.60
20091;DHT22;10205;49.678;6.560;2023-11-22T12:16:05;11.10;70.10
20091;DHT22;10205;49.678;6.560;2023-11-22T12:18:39;11.10;70.40
20091;DHT22;10205;49.678;6.560;2023-11-22T12:21:07;11.10;70.60
20091;DHT22;10205;49.678;6.560;2023-11-22T12:23:39;11.10;70.10
20091;DHT22;10205;49.678;6.560;2023-11-22T12:26:12;11.10;69.70
20091;DHT22;10205;49.678;6.560;2023-11-22T12:28:41;11.10;68.40
20091;DHT22;10205;49.678;6.560;2023-11-22T12:31:13;11.10;69.00
20091;DHT22;10205;49.678;6.560;2023-11-22T12:33:41;11.10;69.50
20091;DHT22;10205;49.678;6.560;2023-11-22T12:36:11;11.10;68.80
20091;DHT22;10205;49.678;6.560;2023-11-22T12:38:40;11.10;68.70
20091;DHT22;10205;49.678;6.560;2023-11-22T12:41:08;11.10;68.70
20091;DHT22;10205;49.678;6.560;2023-11-22T12:43:37;11.10;67.60
20091;DHT22;10205;49.678;6.560;2023-11-22T12:46:06;11.10;67.70
20091;DHT22;10205;49.678;6.560;2023-11-22T12:48:37;11.10;68.60
20091;DHT22;10205;49.678;6.560;2023-11-22T12:51:15;11.10;68.00
20091;DHT22;10205;49.678;6.560;2023-11-22T12:53:45;11.00;67.80
20091;DHT22;10205;49.678;6.560;2023-11-22T12:56:13;11.00;67.80
20091;DHT22;10205;49.678;6.560;2023-11-22T12:58:42;11.00;67.80
20091;DHT22;10205;49.678;6.560;2023-11-22T13:01:09;11.00;67.40
20091;DHT22;10205;49.678;6.560;2023-11-22T13:03:36;11.00;67.50
20091;DHT22;10205;49.678;6.560;2023-11-22T13:06:04;11.00;67.50
20091;DHT22;10205;49.678;6.560;2023-11-22T13:08:31;11.00;66.60
20091;DHT22;10205;49.678;6.560;2023-11-22T13:11:00;11.00;66.80
20091;DHT22;10205;49.678;6.560;2023-11-22T13:13:27;11.00;67.30
20091;DHT22;10205;49.678;6.560;2023-11-22T13:15:57;11.00;67.10
20091;DHT22;10205;49.678;6.560;2023-11-22T13:18:25;11.00;66.20
20091;DHT22;10205;49.678;6.560;2023-11-22T13:20:52;11.00;66.00
20091;DHT22;10205;49.678;6.560;2023-11-22T13:23:20;11.00;67.20
20091;DHT22;10205;49.678;6.560;2023-11-22T13:25:47;11.00;66.80
20091;DHT22;10205;49.678;6.560;2023-11-22T13:28:14;11.00;66.60
20091;DHT22;10205;49.678;6.560;2023-11-22T13:30:41;11.00;67.30
20091;DHT22;10205;49.678;6.560;2023-11-22T13:33:10;11.00;67.80
20091;DHT22;10205;49.678;6.560;2023-11-22T13:35:39;11.00;67.80
20091;DHT22;10205;49.678;6.560;2023-11-22T13:38:06;11.00;66.60
20091;DHT22;10205;49.678;6.560;2023-11-22T13:40:37;11.00;67.60
20091;DHT22;10205;49.678;6.560;2023-11-22T13:43:06;11.00;67.60
20091;DHT22;10205;49.678;6.560;2023-11-22T13:45:35;11.00;67.60
20091;DHT22;10205;49.678;6.560;2023-11-22T13:48:04;11.00;67.30
20091;DHT22;10205;49.678;6.560;2023-11-22T13:50:33;11.00;66.20
20091;DHT22;10205;49.678;6.560;2023-11-22T13:53:03;11.00;66.40
20091;DHT22;10205;49.678;6.560;2023-11-22T13:55:30;10.90;67.60
20091;DHT22;10205;49.678;6.560;2023-11-22T13:57:58;11.00;67.90
20091;DHT22;10205;49.678;6.560;2023-11-22T14:00:30;11.00;67.20
20091;DHT22;10205;49.678;6.560;2023-11-22T14:03:01;11.00;68.40
20091;DHT22;10205;49.678;6.560;2023-11-22T14:05:34;11.00;68.20
20091;DHT22;10205;49.678;6.560;2023-11-22T14:08:03;10.90;68.10
20091;DHT22;10205;49.678;6.560;2023-11-22T14:10:31;10.90;68.20
20091;DHT22;10205;49.678;6.560;2023-11-22T14:12:59;11.00;68.30
20091;DHT22;10205;49.678;6.560;2023-11-22T14:15:27;10.90;66.60
20091;DHT22;10205;49.678;6.560;2023-11-22T14:17:54;10.90;66.90
20091;DHT22;10205;49.678;6.560;2023-11-22T14:20:22;10.90;66.90
20091;DHT22;10205;49.678;6.560;2023-11-22T14:22:51;10.90;66.80
20091;DHT22;10205;49.678;6.560;2023-11-22T14:25:19;10.90;67.60
20091;DHT22;10205;49.678;6.560;2023-11-22T14:27:46;10.90;67.90
20091;DHT22;10205;49.678;6.560;2023-11-22T14:30:17;10.90;66.90
20091;DHT22;10205;49.678;6.560;2023-11-22T14:32:46;10.80;66.70
20091;DHT22;10205;49.678;6.560;2023-11-22T14:35:13;10.80;67.30
20091;DHT22;10205;49.678;6.560;2023-11-22T14:37:43;10.80;67.40
20091;DHT22;10205;49.678;6.560;2023-11-22T14:40:12;10.80;67.90
20091;DHT22;10205;49.678;6.560;2023-11-22T14:42:41;10.80;68.00
20091;DHT22;10205;49.678;6.560;2023-11-22T14:45:09;10.80;68.30
20091;DHT22;10205;49.678;6.560;2023-11-22T14:47:38;10.70;68.10
20091;DHT22;10205;49.678;6.560;2023-11-22T14:50:06;10.70;68.40
20091;DHT22;10205;49.678;6.560;2023-11-22T14:52:37;10.70;68.30
20091;DHT22;10205;49.678;6.560;2023-11-22T14:55:04;10.70;68.30
20091;DHT22;10205;49.678;6.560;2023-11-22T14:57:33;10.70;68.20
20091;DHT22;10205;49.678;6.560;2023-11-22T15:00:01;10.70;68.20
20091;DHT22;10205;49.678;6.560;2023-11-22T15:02:31;10.70;68.60
20091;DHT22;10205;49.678;6.560;2023-11-22T15:05:01;10.70;68.90
20091;DHT22;10205;49.678;6.560;2023-11-22T15:07:29;10.70;69.20
20091;DHT22;10205;49.678;6.560;2023-11-22T15:09:56;10.70;69.30
20091;DHT22;10205;49.678;6.560;2023-11-22T15:12:23;10.70;69.50
20091;DHT22;10205;49.678;6.560;2023-11-22T15:14:52;10.60;69.60
20091;DHT22;10205;49.678;6.560;2023-11-22T15:17:19;10.70;69.80
20091;DHT22;10205;49.678;6.560;2023-11-22T15:19:46;10.60;70.60
20091;DHT22;10205;49.678;6.560;2023-11-22T15:22:13;10.60;69.80
20091;DHT22;10205;49.678;6.560;2023-11-22T15:24:41;10.60;69.90
20091;DHT22;10205;49.678;6.560;2023-11-22T15:27:09;10.60;70.80
20091;DHT22;10205;49.678;6.560;2023-11-22T15:29:36;10.60;70.10
20091;DHT22;10205;49.678;6.560;2023-11-22T15:32:05;10.60;70.10
20091;DHT22;10205;49.678;6.560;2023-11-22T15:34:32;10.60;70.20
20091;DHT22;10205;49.678;6.560;2023-11-22T15:36:59;10.60;70.20